Manhattan Regional Airport Manhattan US
ICAO: KMHK
IATA: MHK
Category: Medium
Scheduled Services: Yes

Elevation: 1057 ft
TransAlt. 18000 ft.

Airport Communications:
KANSAS CITY CNTR:127.35
ASOS:119.075
CTAF:118.55
GND:121.85
WICHITA RDO:122.65
TWR:118.55

KMHK Zoom In..

If you have problems with the map follow the link
https://www.worldairports.se/pages/airport.php?
ICAO=KMHK

Runways:

(A) RW 03 length 7000 ft width 150 ft
ILS 111.30 / hdg 36

(B) RW 13 length 5000 ft width 75 ft
---- / hdg 138

(C) RW 21 length 7000 ft width 150 ft
---- / hdg 216

(D) RW 31 length 5000 ft width 75 ft
---- / hdg 318

Location; KMHK
Day. 16 / Time. 11.52 Zulu
* Altimeter: 30.13
* Temperature: -04° c. -24.8°f.
* Wind from: 000° Speed 00 kn.
Dewpoint: -06° c.
Visibility: 10 Statute Miles.
Clouds: Clear (automated report).

KMHK 161152Z AUTO 00000KT 10SM CLR M04/M06 A3013 RMK AO2 SLP211 I1000 I6000 T10391056 11006 21039 53003


Wind - Calm.

 
 
jpsmedia.com for Web Design worldairports.se 2018   terms of use